Terminal Aerodrome Forecast
Issued by NWS

Home | Current Version | Previous Version | Text Only | Print | Product List | Glossary On
Versions: 1 2 3 4 5 6 7 8 9 10 11 12 13 14 15 16
000
FTUS43 KBIS 302320
TAFMOT
TAF
KMOT 302320Z 3100/3124 29012G19KT P6SM BKN150
      TEMPO 3100/3102 2SM FU BKN025
     FM310200 31008KT P6SM BKN140
     FM310800 30006KT P6SM VCTS BKN120CB
     FM311200 29011KT P6SM BKN090
     FM311300 29013G22KT P6SM SCT080=

USA.gov is the U.S. government's official web portal to all federal, state and local government web resources and services.